sensor_id;sensor_type;location;lat;lon;timestamp;temperature;humidity
54540;SHT30;40438;52.992;18.604;2023-07-31T00:00:52;18.74;78.44
54540;SHT30;40438;52.992;18.604;2023-07-31T00:03:18;18.74;78.42
54540;SHT30;40438;52.992;18.604;2023-07-31T00:05:43;18.64;78.50
54540;SHT30;40438;52.992;18.604;2023-07-31T00:08:11;18.60;78.76
54540;SHT30;40438;52.992;18.604;2023-07-31T00:10:37;18.75;77.07
54540;SHT30;40438;52.992;18.604;2023-07-31T00:13:02;18.71;76.86
54540;SHT30;40438;52.992;18.604;2023-07-31T00:15:28;18.74;76.95
54540;SHT30;40438;52.992;18.604;2023-07-31T00:17:54;18.65;76.62
54540;SHT30;40438;52.992;18.604;2023-07-31T00:20:20;18.67;76.57
54540;SHT30;40438;52.992;18.604;2023-07-31T00:22:46;18.71;76.15
54540;SHT30;40438;52.992;18.604;2023-07-31T00:25:13;18.60;76.09
54540;SHT30;40438;52.992;18.604;2023-07-31T00:27:39;18.68;75.44
54540;SHT30;40438;52.992;18.604;2023-07-31T00:30:06;18.63;75.74
54540;SHT30;40438;52.992;18.604;2023-07-31T00:32:32;18.60;75.49
54540;SHT30;40438;52.992;18.604;2023-07-31T00:34:59;18.39;76.42
54540;SHT30;40438;52.992;18.604;2023-07-31T00:37:25;18.42;76.57
54540;SHT30;40438;52.992;18.604;2023-07-31T00:39:50;18.33;76.82
54540;SHT30;40438;52.992;18.604;2023-07-31T00:42:18;18.27;76.78
54540;SHT30;40438;52.992;18.604;2023-07-31T00:44:43;18.27;76.76
54540;SHT30;40438;52.992;18.604;2023-07-31T00:47:09;18.23;76.66
54540;SHT30;40438;52.992;18.604;2023-07-31T00:49:35;18.32;76.62
54540;SHT30;40438;52.992;18.604;2023-07-31T00:52:01;18.36;76.34
54540;SHT30;40438;52.992;18.604;2023-07-31T00:54:27;18.26;76.53
54540;SHT30;40438;52.992;18.604;2023-07-31T00:56:53;18.27;76.84
54540;SHT30;40438;52.992;18.604;2023-07-31T00:59:22;18.30;76.33
54540;SHT30;40438;52.992;18.604;2023-07-31T01:01:48;18.20;76.87
54540;SHT30;40438;52.992;18.604;2023-07-31T01:04:15;18.16;77.26
54540;SHT30;40438;52.992;18.604;2023-07-31T01:06:46;18.17;77.42
54540;SHT30;40438;52.992;18.604;2023-07-31T01:09:21;18.13;77.33
54540;SHT30;40438;52.992;18.604;2023-07-31T01:11:53;18.27;77.13
54540;SHT30;40438;52.992;18.604;2023-07-31T01:14:23;18.32;77.09
54540;SHT30;40438;52.992;18.604;2023-07-31T01:16:49;18.33;77.03
54540;SHT30;40438;52.992;18.604;2023-07-31T01:19:15;18.26;77.32
54540;SHT30;40438;52.992;18.604;2023-07-31T01:22:04;18.27;77.57
54540;SHT30;40438;52.992;18.604;2023-07-31T01:24:42;18.17;78.19
54540;SHT30;40438;52.992;18.604;2023-07-31T01:27:16;18.10;78.44
54540;SHT30;40438;52.992;18.604;2023-07-31T01:29:47;18.25;78.52
54540;SHT30;40438;52.992;18.604;2023-07-31T01:32:17;18.08;78.95
54540;SHT30;40438;52.992;18.604;2023-07-31T01:34:44;17.95;79.84
54540;SHT30;40438;52.992;18.604;2023-07-31T01:37:10;17.92;80.49
54540;SHT30;40438;52.992;18.604;2023-07-31T01:39:36;17.91;80.47
54540;SHT30;40438;52.992;18.604;2023-07-31T01:42:02;17.92;80.63
54540;SHT30;40438;52.992;18.604;2023-07-31T01:44:29;17.99;80.56
54540;SHT30;40438;52.992;18.604;2023-07-31T01:46:55;17.91;81.10
54540;SHT30;40438;52.992;18.604;2023-07-31T01:49:21;18.02;80.69
54540;SHT30;40438;52.992;18.604;2023-07-31T01:51:46;17.92;80.84
54540;SHT30;40438;52.992;18.604;2023-07-31T01:54:12;17.82;81.32
54540;SHT30;40438;52.992;18.604;2023-07-31T01:56:38;17.86;81.60
54540;SHT30;40438;52.992;18.604;2023-07-31T01:59:04;17.88;81.62
54540;SHT30;40438;52.992;18.604;2023-07-31T02:01:31;17.94;81.14
54540;SHT30;40438;52.992;18.604;2023-07-31T02:03:58;17.88;81.41
54540;SHT30;40438;52.992;18.604;2023-07-31T02:06:24;17.82;81.52
54540;SHT30;40438;52.992;18.604;2023-07-31T02:08:49;17.77;81.88
54540;SHT30;40438;52.992;18.604;2023-07-31T02:11:15;17.75;82.02
54540;SHT30;40438;52.992;18.604;2023-07-31T02:13:41;17.68;82.33
54540;SHT30;40438;52.992;18.604;2023-07-31T02:16:07;17.67;82.48
54540;SHT30;40438;52.992;18.604;2023-07-31T02:18:34;17.73;82.22
54540;SHT30;40438;52.992;18.604;2023-07-31T02:21:01;17.71;82.36
54540;SHT30;40438;52.992;18.604;2023-07-31T02:23:27;17.68;82.53
54540;SHT30;40438;52.992;18.604;2023-07-31T02:25:52;17.67;82.62
54540;SHT30;40438;52.992;18.604;2023-07-31T02:28:18;17.58;82.86
54540;SHT30;40438;52.992;18.604;2023-07-31T02:30:44;17.63;82.84
54540;SHT30;40438;52.992;18.604;2023-07-31T02:33:10;17.50;83.18
54540;SHT30;40438;52.992;18.604;2023-07-31T02:35:38;17.50;83.27
54540;SHT30;40438;52.992;18.604;2023-07-31T02:38:03;17.54;83.29
54540;SHT30;40438;52.992;18.604;2023-07-31T02:40:29;17.53;83.35
54540;SHT30;40438;52.992;18.604;2023-07-31T02:42:55;17.57;83.17
54540;SHT30;40438;52.992;18.604;2023-07-31T02:45:21;17.51;83.29
54540;SHT30;40438;52.992;18.604;2023-07-31T02:47:46;17.54;83.11
54540;SHT30;40438;52.992;18.604;2023-07-31T02:50:12;17.51;83.11
54540;SHT30;40438;52.992;18.604;2023-07-31T02:52:39;17.47;83.26
54540;SHT30;40438;52.992;18.604;2023-07-31T02:55:06;17.50;83.03
54540;SHT30;40438;52.992;18.604;2023-07-31T02:57:32;17.41;83.43
54540;SHT30;40438;52.992;18.604;2023-07-31T02:59:57;17.40;83.39
54540;SHT30;40438;52.992;18.604;2023-07-31T03:02:23;17.37;83.58
54540;SHT30;40438;52.992;18.604;2023-07-31T03:04:49;17.30;83.65
54540;SHT30;40438;52.992;18.604;2023-07-31T03:07:15;17.36;83.47
54540;SHT30;40438;52.992;18.604;2023-07-31T03:09:42;17.34;83.27
54540;SHT30;40438;52.992;18.604;2023-07-31T03:12:08;17.33;83.16
54540;SHT30;40438;52.992;18.604;2023-07-31T03:14:34;17.27;83.51
54540;SHT30;40438;52.992;18.604;2023-07-31T03:17:00;17.23;83.76
54540;SHT30;40438;52.992;18.604;2023-07-31T03:19:26;17.27;83.45
54540;SHT30;40438;52.992;18.604;2023-07-31T03:21:51;17.28;83.09
54540;SHT30;40438;52.992;18.604;2023-07-31T03:24:17;17.24;83.33
54540;SHT30;40438;52.992;18.604;2023-07-31T03:26:44;17.19;83.54
54540;SHT30;40438;52.992;18.604;2023-07-31T03:29:10;17.15;83.74
54540;SHT30;40438;52.992;18.604;2023-07-31T03:31:36;17.15;83.80
54540;SHT30;40438;52.992;18.604;2023-07-31T03:34:02;17.13;83.75
54540;SHT30;40438;52.992;18.604;2023-07-31T03:36:27;17.13;83.65
54540;SHT30;40438;52.992;18.604;2023-07-31T03:38:53;17.12;83.69
54540;SHT30;40438;52.992;18.604;2023-07-31T03:41:19;17.07;83.67
54540;SHT30;40438;52.992;18.604;2023-07-31T03:43:50;17.15;83.50
54540;SHT30;40438;52.992;18.604;2023-07-31T03:46:16;17.26;83.26
54540;SHT30;40438;52.992;18.604;2023-07-31T03:48:42;17.19;83.07
54540;SHT30;40438;52.992;18.604;2023-07-31T03:51:08;17.27;82.48
54540;SHT30;40438;52.992;18.604;2023-07-31T03:53:34;17.27;82.18
54540;SHT30;40438;52.992;18.604;2023-07-31T03:56:00;17.34;81.48
54540;SHT30;40438;52.992;18.604;2023-07-31T03:58:25;17.24;81.55
54540;SHT30;40438;52.992;18.604;2023-07-31T04:00:52;17.24;81.80
54540;SHT30;40438;52.992;18.604;2023-07-31T04:03:18;17.22;81.92
54540;SHT30;40438;52.992;18.604;2023-07-31T04:05:44;17.15;82.02
54540;SHT30;40438;52.992;18.604;2023-07-31T04:08:10;17.19;81.87
54540;SHT30;40438;52.992;18.604;2023-07-31T04:10:36;17.17;81.64
54540;SHT30;40438;52.992;18.604;2023-07-31T04:13:01;17.20;81.43
54540;SHT30;40438;52.992;18.604;2023-07-31T04:15:27;17.20;81.61
54540;SHT30;40438;52.992;18.604;2023-07-31T04:17:54;17.17;81.71
54540;SHT30;40438;52.992;18.604;2023-07-31T04:20:20;17.09;81.87
54540;SHT30;40438;52.992;18.604;2023-07-31T04:22:46;17.10;82.13
54540;SHT30;40438;52.992;18.604;2023-07-31T04:25:12;17.12;81.93
54540;SHT30;40438;52.992;18.604;2023-07-31T04:27:37;17.19;81.68
54540;SHT30;40438;52.992;18.604;2023-07-31T04:30:04;17.17;81.47
54540;SHT30;40438;52.992;18.604;2023-07-31T04:32:30;17.09;81.49
54540;SHT30;40438;52.992;18.604;2023-07-31T04:34:58;17.02;81.77
54540;SHT30;40438;52.992;18.604;2023-07-31T04:37:23;17.07;81.78
54540;SHT30;40438;52.992;18.604;2023-07-31T04:39:49;17.12;81.19
54540;SHT30;40438;52.992;18.604;2023-07-31T04:42:15;17.13;81.26
54540;SHT30;40438;52.992;18.604;2023-07-31T04:44:41;17.16;81.03
54540;SHT30;40438;52.992;18.604;2023-07-31T04:47:06;17.09;81.02
54540;SHT30;40438;52.992;18.604;2023-07-31T04:49:32;17.15;80.88
54540;SHT30;40438;52.992;18.604;2023-07-31T04:51:59;17.22;80.19
54540;SHT30;40438;52.992;18.604;2023-07-31T04:54:25;17.26;80.12
54540;SHT30;40438;52.992;18.604;2023-07-31T04:56:51;17.20;80.27
54540;SHT30;40438;52.992;18.604;2023-07-31T04:59:17;17.22;80.06
54540;SHT30;40438;52.992;18.604;2023-07-31T05:01:42;17.26;79.99
54540;SHT30;40438;52.992;18.604;2023-07-31T05:04:08;17.22;79.65
54540;SHT30;40438;52.992;18.604;2023-07-31T05:06:34;17.27;79.54
54540;SHT30;40438;52.992;18.604;2023-07-31T05:09:01;17.31;79.65
54540;SHT30;40438;52.992;18.604;2023-07-31T05:11:27;17.31;79.51
54540;SHT30;40438;52.992;18.604;2023-07-31T05:13:53;17.34;79.31
54540;SHT30;40438;52.992;18.604;2023-07-31T05:16:18;17.38;78.98
54540;SHT30;40438;52.992;18.604;2023-07-31T05:18:44;17.41;79.11
54540;SHT30;40438;52.992;18.604;2023-07-31T05:21:10;17.46;77.96
54540;SHT30;40438;52.992;18.604;2023-07-31T05:23:36;17.43;78.34
54540;SHT30;40438;52.992;18.604;2023-07-31T05:26:06;17.40;78.25
54540;SHT30;40438;52.992;18.604;2023-07-31T05:28:34;17.43;78.73
54540;SHT30;40438;52.992;18.604;2023-07-31T05:31:00;17.53;78.34
54540;SHT30;40438;52.992;18.604;2023-07-31T05:33:25;17.48;78.45
54540;SHT30;40438;52.992;18.604;2023-07-31T05:35:51;17.64;78.28
54540;SHT30;40438;52.992;18.604;2023-07-31T05:38:17;17.63;78.40
54540;SHT30;40438;52.992;18.604;2023-07-31T05:40:43;17.64;78.00
54540;SHT30;40438;52.992;18.604;2023-07-31T05:43:10;17.63;78.17
54540;SHT30;40438;52.992;18.604;2023-07-31T05:45:36;17.75;77.92
54540;SHT30;40438;52.992;18.604;2023-07-31T05:48:02;17.95;76.98
54540;SHT30;40438;52.992;18.604;2023-07-31T05:50:28;18.01;76.22
54540;SHT30;40438;52.992;18.604;2023-07-31T05:52:54;17.92;76.26
54540;SHT30;40438;52.992;18.604;2023-07-31T05:55:20;17.88;76.28
54540;SHT30;40438;52.992;18.604;2023-07-31T05:57:45;17.88;76.48
54540;SHT30;40438;52.992;18.604;2023-07-31T06:00:14;17.88;76.41
54540;SHT30;40438;52.992;18.604;2023-07-31T06:02:39;17.91;76.20
54540;SHT30;40438;52.992;18.604;2023-07-31T06:05:06;17.92;75.61
54540;SHT30;40438;52.992;18.604;2023-07-31T06:11:12;17.91;76.34
54540;SHT30;40438;52.992;18.604;2023-07-31T06:13:37;17.96;76.27
54540;SHT30;40438;52.992;18.604;2023-07-31T06:16:04;18.05;75.68
54540;SHT30;40438;52.992;18.604;2023-07-31T06:18:30;17.99;76.32
54540;SHT30;40438;52.992;18.604;2023-07-31T06:20:56;18.04;76.07
54540;SHT30;40438;52.992;18.604;2023-07-31T06:23:22;18.05;75.41
54540;SHT30;40438;52.992;18.604;2023-07-31T06:25:47;18.15;74.52
54540;SHT30;40438;52.992;18.604;2023-07-31T06:28:13;18.16;74.23
54540;SHT30;40438;52.992;18.604;2023-07-31T06:30:38;18.25;74.25
54540;SHT30;40438;52.992;18.604;2023-07-31T06:33:05;18.10;74.92
54540;SHT30;40438;52.992;18.604;2023-07-31T06:35:31;18.22;72.97
54540;SHT30;40438;52.992;18.604;2023-07-31T06:37:56;18.30;72.65
54540;SHT30;40438;52.992;18.604;2023-07-31T06:40:22;18.27;73.48
54540;SHT30;40438;52.992;18.604;2023-07-31T06:42:48;18.25;73.60
54540;SHT30;40438;52.992;18.604;2023-07-31T06:45:13;18.33;73.62
54540;SHT30;40438;52.992;18.604;2023-07-31T06:47:39;18.43;72.85
54540;SHT30;40438;52.992;18.604;2023-07-31T06:50:07;18.57;72.21
54540;SHT30;40438;52.992;18.604;2023-07-31T06:52:33;18.68;72.43
54540;SHT30;40438;52.992;18.604;2023-07-31T06:55:03;18.78;72.44
54540;SHT30;40438;52.992;18.604;2023-07-31T06:57:29;18.88;71.14
54540;SHT30;40438;52.992;18.604;2023-07-31T06:59:55;19.01;70.19
54540;SHT30;40438;52.992;18.604;2023-07-31T07:02:20;19.11;68.81
54540;SHT30;40438;52.992;18.604;2023-07-31T07:04:46;19.08;69.71
54540;SHT30;40438;52.992;18.604;2023-07-31T07:07:13;19.01;69.02
54540;SHT30;40438;52.992;18.604;2023-07-31T07:09:39;19.09;68.44
54540;SHT30;40438;52.992;18.604;2023-07-31T07:12:05;19.19;67.08
54540;SHT30;40438;52.992;18.604;2023-07-31T07:14:31;19.28;67.61
54540;SHT30;40438;52.992;18.604;2023-07-31T07:16:56;19.39;67.49
54540;SHT30;40438;52.992;18.604;2023-07-31T07:19:22;19.42;66.52
54540;SHT30;40438;52.992;18.604;2023-07-31T07:21:47;19.64;65.46
54540;SHT30;40438;52.992;18.604;2023-07-31T07:24:14;19.71;65.88
54540;SHT30;40438;52.992;18.604;2023-07-31T07:26:40;19.69;65.53
54540;SHT30;40438;52.992;18.604;2023-07-31T07:29:05;19.71;66.36
54540;SHT30;40438;52.992;18.604;2023-07-31T07:31:31;19.70;66.51
54540;SHT30;40438;52.992;18.604;2023-07-31T07:33:57;19.83;65.51
54540;SHT30;40438;52.992;18.604;2023-07-31T07:36:22;19.88;64.69
54540;SHT30;40438;52.992;18.604;2023-07-31T07:38:48;19.98;65.12
54540;SHT30;40438;52.992;18.604;2023-07-31T07:41:15;20.04;64.56
54540;SHT30;40438;52.992;18.604;2023-07-31T07:43:40;20.12;63.71
54540;SHT30;40438;52.992;18.604;2023-07-31T07:46:06;20.22;60.83
54540;SHT30;40438;52.992;18.604;2023-07-31T07:48:32;20.22;61.64
54540;SHT30;40438;52.992;18.604;2023-07-31T07:50:57;20.11;61.43
54540;SHT30;40438;52.992;18.604;2023-07-31T07:53:23;20.22;61.34
54540;SHT30;40438;52.992;18.604;2023-07-31T07:55:48;20.28;60.70
54540;SHT30;40438;52.992;18.604;2023-07-31T07:58:15;20.25;61.65
54540;SHT30;40438;52.992;18.604;2023-07-31T08:00:41;20.33;61.61
54540;SHT30;40438;52.992;18.604;2023-07-31T08:03:06;20.45;61.45
54540;SHT30;40438;52.992;18.604;2023-07-31T08:05:32;20.62;61.20
54540;SHT30;40438;52.992;18.604;2023-07-31T08:07:58;20.76;62.03
54540;SHT30;40438;52.992;18.604;2023-07-31T08:10:23;21.00;59.07
54540;SHT30;40438;52.992;18.604;2023-07-31T08:12:49;21.00;57.10
54540;SHT30;40438;52.992;18.604;2023-07-31T08:15:16;20.84;57.18
54540;SHT30;40438;52.992;18.604;2023-07-31T08:17:41;21.03;56.23
54540;SHT30;40438;52.992;18.604;2023-07-31T08:20:08;20.94;57.13
54540;SHT30;40438;52.992;18.604;2023-07-31T08:22:34;20.93;57.14
54540;SHT30;40438;52.992;18.604;2023-07-31T08:24:59;21.11;56.62
54540;SHT30;40438;52.992;18.604;2023-07-31T08:27:25;21.22;55.96
54540;SHT30;40438;52.992;18.604;2023-07-31T08:29:51;21.10;57.14
54540;SHT30;40438;52.992;18.604;2023-07-31T08:32:18;21.20;56.59
54540;SHT30;40438;52.992;18.604;2023-07-31T08:34:44;21.30;57.19
54540;SHT30;40438;52.992;18.604;2023-07-31T08:37:10;21.47;56.02
54540;SHT30;40438;52.992;18.604;2023-07-31T08:39:35;21.44;55.95
54540;SHT30;40438;52.992;18.604;2023-07-31T08:42:01;21.62;54.72
54540;SHT30;40438;52.992;18.604;2023-07-31T08:44:27;21.40;55.04
54540;SHT30;40438;52.992;18.604;2023-07-31T08:46:53;21.58;54.99
54540;SHT30;40438;52.992;18.604;2023-07-31T08:49:20;21.80;54.84
54540;SHT30;40438;52.992;18.604;2023-07-31T08:51:49;21.89;54.90
54540;SHT30;40438;52.992;18.604;2023-07-31T08:54:15;22.10;53.63
54540;SHT30;40438;52.992;18.604;2023-07-31T08:56:40;22.19;53.79
54540;SHT30;40438;52.992;18.604;2023-07-31T08:59:08;22.21;53.52
54540;SHT30;40438;52.992;18.604;2023-07-31T09:01:36;22.24;53.27
54540;SHT30;40438;52.992;18.604;2023-07-31T09:04:04;22.29;52.62
54540;SHT30;40438;52.992;18.604;2023-07-31T09:06:32;22.23;53.14
54540;SHT30;40438;52.992;18.604;2023-07-31T09:08:58;22.09;54.69
54540;SHT30;40438;52.992;18.604;2023-07-31T09:11:25;22.12;53.58
54540;SHT30;40438;52.992;18.604;2023-07-31T09:13:52;21.99;55.23
54540;SHT30;40438;52.992;18.604;2023-07-31T09:16:18;21.82;55.05
54540;SHT30;40438;52.992;18.604;2023-07-31T09:18:53;21.73;55.71
54540;SHT30;40438;52.992;18.604;2023-07-31T09:21:19;21.85;55.32
54540;SHT30;40438;52.992;18.604;2023-07-31T09:23:47;21.76;56.54
54540;SHT30;40438;52.992;18.604;2023-07-31T09:26:28;21.85;55.79
54540;SHT30;40438;52.992;18.604;2023-07-31T09:28:54;21.79;55.89
54540;SHT30;40438;52.992;18.604;2023-07-31T09:31:31;21.96;55.74
54540;SHT30;40438;52.992;18.604;2023-07-31T09:33:57;21.98;55.30
54540;SHT30;40438;52.992;18.604;2023-07-31T09:36:23;21.99;55.84
54540;SHT30;40438;52.992;18.604;2023-07-31T09:38:50;22.08;56.16
54540;SHT30;40438;52.992;18.604;2023-07-31T09:41:15;22.02;55.97
54540;SHT30;40438;52.992;18.604;2023-07-31T09:43:41;21.82;56.47
54540;SHT30;40438;52.992;18.604;2023-07-31T09:46:13;21.80;57.09
54540;SHT30;40438;52.992;18.604;2023-07-31T09:48:39;21.90;58.01
54540;SHT30;40438;52.992;18.604;2023-07-31T09:51:04;22.02;57.24
54540;SHT30;40438;52.992;18.604;2023-07-31T09:53:30;21.93;56.93
54540;SHT30;40438;52.992;18.604;2023-07-31T09:55:58;22.06;57.55
54540;SHT30;40438;52.992;18.604;2023-07-31T09:58:25;21.98;56.36
54540;SHT30;40438;52.992;18.604;2023-07-31T10:00:53;21.99;55.47
54540;SHT30;40438;52.992;18.604;2023-07-31T10:03:19;22.00;55.46
54540;SHT30;40438;52.992;18.604;2023-07-31T10:05:49;21.92;56.36
54540;SHT30;40438;52.992;18.604;2023-07-31T10:08:16;21.89;56.77
54540;SHT30;40438;52.992;18.604;2023-07-31T10:10:44;21.95;56.93
54540;SHT30;40438;52.992;18.604;2023-07-31T10:13:12;21.99;56.55
54540;SHT30;40438;52.992;18.604;2023-07-31T10:15:38;21.96;57.17
54540;SHT30;40438;52.992;18.604;2023-07-31T10:18:05;21.89;56.68
54540;SHT30;40438;52.992;18.604;2023-07-31T10:20:31;21.80;56.57
54540;SHT30;40438;52.992;18.604;2023-07-31T10:22:57;21.73;57.79
54540;SHT30;40438;52.992;18.604;2023-07-31T10:25:23;21.71;58.12
54540;SHT30;40438;52.992;18.604;2023-07-31T10:27:50;21.68;59.04
54540;SHT30;40438;52.992;18.604;2023-07-31T10:30:20;21.47;59.60
54540;SHT30;40438;52.992;18.604;2023-07-31T10:32:48;21.35;60.42
54540;SHT30;40438;52.992;18.604;2023-07-31T10:35:14;21.21;60.73
54540;SHT30;40438;52.992;18.604;2023-07-31T10:37:42;21.18;60.58
54540;SHT30;40438;52.992;18.604;2023-07-31T10:40:11;21.14;61.10
54540;SHT30;40438;52.992;18.604;2023-07-31T10:42:38;20.90;63.37
54540;SHT30;40438;52.992;18.604;2023-07-31T10:45:10;20.72;70.14
54540;SHT30;40438;52.992;18.604;2023-07-31T10:47:42;20.38;71.76
54540;SHT30;40438;52.992;18.604;2023-07-31T10:50:22;20.18;72.30
54540;SHT30;40438;52.992;18.604;2023-07-31T10:52:48;20.11;73.78
54540;SHT30;40438;52.992;18.604;2023-07-31T10:55:26;20.03;71.87
54540;SHT30;40438;52.992;18.604;2023-07-31T10:57:52;19.74;73.68
54540;SHT30;40438;52.992;18.604;2023-07-31T11:00:20;19.47;74.92
54540;SHT30;40438;52.992;18.604;2023-07-31T11:03:02;19.19;76.33
54540;SHT30;40438;52.992;18.604;2023-07-31T11:05:45;19.01;77.28
54540;SHT30;40438;52.992;18.604;2023-07-31T11:08:15;18.92;77.11
54540;SHT30;40438;52.992;18.604;2023-07-31T11:10:42;18.85;78.54
54540;SHT30;40438;52.992;18.604;2023-07-31T11:13:07;18.70;78.69
54540;SHT30;40438;52.992;18.604;2023-07-31T11:15:33;18.67;78.53
54540;SHT30;40438;52.992;18.604;2023-07-31T11:18:02;18.67;79.04
54540;SHT30;40438;52.992;18.604;2023-07-31T11:20:29;18.57;78.91
54540;SHT30;40438;52.992;18.604;2023-07-31T11:22:57;18.59;79.31
54540;SHT30;40438;52.992;18.604;2023-07-31T11:25:23;18.83;78.97
54540;SHT30;40438;52.992;18.604;2023-07-31T11:27:49;18.85;77.90
54540;SHT30;40438;52.992;18.604;2023-07-31T11:30:15;19.15;79.44
54540;SHT30;40438;52.992;18.604;2023-07-31T11:32:40;19.39;77.47
54540;SHT30;40438;52.992;18.604;2023-07-31T11:35:12;19.67;75.12
54540;SHT30;40438;52.992;18.604;2023-07-31T11:37:41;19.83;75.18
54540;SHT30;40438;52.992;18.604;2023-07-31T11:40:08;20.07;74.44
54540;SHT30;40438;52.992;18.604;2023-07-31T11:42:34;20.22;71.52
54540;SHT30;40438;52.992;18.604;2023-07-31T11:45:02;20.31;70.51
54540;SHT30;40438;52.992;18.604;2023-07-31T11:47:28;20.31;72.19
54540;SHT30;40438;52.992;18.604;2023-07-31T11:49:55;20.32;70.37
54540;SHT30;40438;52.992;18.604;2023-07-31T11:52:22;20.26;69.02
54540;SHT30;40438;52.992;18.604;2023-07-31T11:54:48;20.28;66.71
54540;SHT30;40438;52.992;18.604;2023-07-31T11:57:14;20.35;65.48
54540;SHT30;40438;52.992;18.604;2023-07-31T11:59:41;20.39;64.94
54540;SHT30;40438;52.992;18.604;2023-07-31T12:02:08;20.33;65.03
54540;SHT30;40438;52.992;18.604;2023-07-31T12:04:34;20.36;63.90
54540;SHT30;40438;52.992;18.604;2023-07-31T12:07:00;20.25;64.34
54540;SHT30;40438;52.992;18.604;2023-07-31T12:09:27;20.21;64.66
54540;SHT30;40438;52.992;18.604;2023-07-31T12:11:53;20.25;64.38
54540;SHT30;40438;52.992;18.604;2023-07-31T12:14:23;20.20;64.31
54540;SHT30;40438;52.992;18.604;2023-07-31T12:16:53;20.12;65.98
54540;SHT30;40438;52.992;18.604;2023-07-31T12:19:19;20.05;65.90
54540;SHT30;40438;52.992;18.604;2023-07-31T12:21:45;19.97;66.54
54540;SHT30;40438;52.992;18.604;2023-07-31T12:24:11;19.96;67.42
54540;SHT30;40438;52.992;18.604;2023-07-31T12:26:38;20.04;67.54
54540;SHT30;40438;52.992;18.604;2023-07-31T12:29:07;20.10;67.83
54540;SHT30;40438;52.992;18.604;2023-07-31T12:31:34;20.03;69.35
54540;SHT30;40438;52.992;18.604;2023-07-31T12:33:59;20.10;69.24
54540;SHT30;40438;52.992;18.604;2023-07-31T12:36:25;20.12;69.78
54540;SHT30;40438;52.992;18.604;2023-07-31T12:38:52;20.12;69.40
54540;SHT30;40438;52.992;18.604;2023-07-31T12:41:18;20.12;69.64
54540;SHT30;40438;52.992;18.604;2023-07-31T12:43:45;20.22;69.57
54540;SHT30;40438;52.992;18.604;2023-07-31T12:46:11;20.18;68.96
54540;SHT30;40438;52.992;18.604;2023-07-31T12:48:38;20.25;68.85
54540;SHT30;40438;52.992;18.604;2023-07-31T12:51:04;20.17;69.35
54540;SHT30;40438;52.992;18.604;2023-07-31T12:53:30;20.15;68.79
54540;SHT30;40438;52.992;18.604;2023-07-31T12:55:56;20.17;69.14
54540;SHT30;40438;52.992;18.604;2023-07-31T12:58:22;20.14;69.18
54540;SHT30;40438;52.992;18.604;2023-07-31T13:00:49;20.11;69.34
54540;SHT30;40438;52.992;18.604;2023-07-31T13:03:15;20.15;69.37
54540;SHT30;40438;52.992;18.604;2023-07-31T13:05:41;20.17;69.70
54540;SHT30;40438;52.992;18.604;2023-07-31T13:08:07;20.21;69.15
54540;SHT30;40438;52.992;18.604;2023-07-31T13:10:33;20.22;68.02
54540;SHT30;40438;52.992;18.604;2023-07-31T13:12:58;20.28;67.47
54540;SHT30;40438;52.992;18.604;2023-07-31T13:15:24;20.12;67.67
54540;SHT30;40438;52.992;18.604;2023-07-31T13:17:51;19.94;68.48
54540;SHT30;40438;52.992;18.604;2023-07-31T13:20:17;20.04;68.54
54540;SHT30;40438;52.992;18.604;2023-07-31T13:22:43;19.98;68.59
54540;SHT30;40438;52.992;18.604;2023-07-31T13:25:09;20.04;68.58
54540;SHT30;40438;52.992;18.604;2023-07-31T13:27:35;20.01;68.49
54540;SHT30;40438;52.992;18.604;2023-07-31T13:30:01;19.97;68.65
54540;SHT30;40438;52.992;18.604;2023-07-31T13:32:27;20.07;68.78
54540;SHT30;40438;52.992;18.604;2023-07-31T13:34:54;20.03;68.54
54540;SHT30;40438;52.992;18.604;2023-07-31T13:37:20;19.96;68.86
54540;SHT30;40438;52.992;18.604;2023-07-31T13:39:45;19.97;69.12
54540;SHT30;40438;52.992;18.604;2023-07-31T13:42:11;20.07;69.12
54540;SHT30;40438;52.992;18.604;2023-07-31T13:44:37;19.94;69.97
54540;SHT30;40438;52.992;18.604;2023-07-31T13:47:03;19.90;69.73
54540;SHT30;40438;52.992;18.604;2023-07-31T13:49:29;19.84;69.65
54540;SHT30;40438;52.992;18.604;2023-07-31T13:51:57;19.80;69.53
54540;SHT30;40438;52.992;18.604;2023-07-31T13:54:23;19.70;69.90
54540;SHT30;40438;52.992;18.604;2023-07-31T13:56:49;19.74;70.52
54540;SHT30;40438;52.992;18.604;2023-07-31T13:59:14;19.75;69.59
54540;SHT30;40438;52.992;18.604;2023-07-31T14:01:40;19.77;69.64
54540;SHT30;40438;52.992;18.604;2023-07-31T14:04:06;19.69;69.96
54540;SHT30;40438;52.992;18.604;2023-07-31T14:06:32;19.66;70.03
54540;SHT30;40438;52.992;18.604;2023-07-31T14:08:59;19.73;69.55
54540;SHT30;40438;52.992;18.604;2023-07-31T14:11:25;19.63;69.71
54540;SHT30;40438;52.992;18.604;2023-07-31T14:13:51;19.69;69.77
54540;SHT30;40438;52.992;18.604;2023-07-31T14:16:17;19.70;69.73
54540;SHT30;40438;52.992;18.604;2023-07-31T14:18:42;19.75;69.58
54540;SHT30;40438;52.992;18.604;2023-07-31T14:21:08;19.85;69.05
54540;SHT30;40438;52.992;18.604;2023-07-31T14:23:34;19.81;69.38
54540;SHT30;40438;52.992;18.604;2023-07-31T14:26:01;19.77;69.92
54540;SHT30;40438;52.992;18.604;2023-07-31T14:28:27;19.87;69.52
54540;SHT30;40438;52.992;18.604;2023-07-31T14:30:53;19.87;69.97
54540;SHT30;40438;52.992;18.604;2023-07-31T14:33:19;19.84;70.22
54540;SHT30;40438;52.992;18.604;2023-07-31T14:35:44;19.78;70.24
54540;SHT30;40438;52.992;18.604;2023-07-31T14:38:10;19.83;70.65
54540;SHT30;40438;52.992;18.604;2023-07-31T14:40:36;19.75;71.18
54540;SHT30;40438;52.992;18.604;2023-07-31T14:43:03;19.57;71.92
54540;SHT30;40438;52.992;18.604;2023-07-31T14:45:29;19.52;72.42
54540;SHT30;40438;52.992;18.604;2023-07-31T14:47:55;19.49;72.78
54540;SHT30;40438;52.992;18.604;2023-07-31T14:50:20;19.50;72.94
54540;SHT30;40438;52.992;18.604;2023-07-31T14:52:46;19.42;72.94
54540;SHT30;40438;52.992;18.604;2023-07-31T14:55:12;19.41;73.52
54540;SHT30;40438;52.992;18.604;2023-07-31T14:57:38;19.47;73.78
54540;SHT30;40438;52.992;18.604;2023-07-31T15:00:06;19.56;73.22
54540;SHT30;40438;52.992;18.604;2023-07-31T15:02:33;19.67;72.95
54540;SHT30;40438;52.992;18.604;2023-07-31T15:04:59;19.77;73.13
54540;SHT30;40438;52.992;18.604;2023-07-31T15:07:25;19.83;72.18
54540;SHT30;40438;52.992;18.604;2023-07-31T15:09:51;19.84;72.42
54540;SHT30;40438;52.992;18.604;2023-07-31T15:12:17;19.97;72.04
54540;SHT30;40438;52.992;18.604;2023-07-31T15:14:43;19.96;71.80